sensor_id;sensor_type;location;lat;lon;timestamp;pressure;altitude;pressure_sealevel;temperature;humidity
37904;BME280;23738;50.422;18.758;2023-03-16T00:00:25;98738.13;;;-0.23;71.27
37904;BME280;23738;50.422;18.758;2023-03-16T00:02:54;98738.32;;;-0.22;71.49
37904;BME280;23738;50.422;18.758;2023-03-16T00:05:23;98739.55;;;-0.24;71.48
37904;BME280;23738;50.422;18.758;2023-03-16T00:07:53;98744.57;;;-0.26;71.55
37904;BME280;23738;50.422;18.758;2023-03-16T00:10:23;98742.05;;;-0.29;71.69
37904;BME280;23738;50.422;18.758;2023-03-16T00:12:54;98742.55;;;-0.31;71.60
37904;BME280;23738;50.422;18.758;2023-03-16T00:15:23;98746.52;;;-0.32;71.48
37904;BME280;23738;50.422;18.758;2023-03-16T00:17:53;98739.79;;;-0.35;71.40
37904;BME280;23738;50.422;18.758;2023-03-16T00:20:22;98748.09;;;-0.29;71.56
37904;BME280;23738;50.422;18.758;2023-03-16T00:22:51;98752.01;;;-0.28;71.60
37904;BME280;23738;50.422;18.758;2023-03-16T00:25:21;98751.38;;;-0.26;71.62
37904;BME280;23738;50.422;18.758;2023-03-16T00:27:51;98755.98;;;-0.25;71.70
37904;BME280;23738;50.422;18.758;2023-03-16T00:30:21;98757.91;;;-0.26;71.65
37904;BME280;23738;50.422;18.758;2023-03-16T00:32:50;98759.45;;;-0.28;71.66
37904;BME280;23738;50.422;18.758;2023-03-16T00:35:20;98762.58;;;-0.32;71.76
37904;BME280;23738;50.422;18.758;2023-03-16T00:37:50;98760.28;;;-0.40;71.63
37904;BME280;23738;50.422;18.758;2023-03-16T00:40:20;98763.52;;;-0.48;71.71
37904;BME280;23738;50.422;18.758;2023-03-16T00:42:49;98766.68;;;-0.55;71.72
37904;BME280;23738;50.422;18.758;2023-03-16T00:45:18;98765.65;;;-0.61;71.60
37904;BME280;23738;50.422;18.758;2023-03-16T00:47:48;98759.85;;;-0.64;71.59
37904;BME280;23738;50.422;18.758;2023-03-16T00:50:17;98761.69;;;-0.65;71.49
37904;BME280;23738;50.422;18.758;2023-03-16T00:52:49;98759.49;;;-0.66;71.49
37904;BME280;23738;50.422;18.758;2023-03-16T00:55:20;98755.39;;;-0.69;71.70
37904;BME280;23738;50.422;18.758;2023-03-16T00:57:50;98757.84;;;-0.71;71.84
37904;BME280;23738;50.422;18.758;2023-03-16T01:00:20;98752.59;;;-0.77;72.08
37904;BME280;23738;50.422;18.758;2023-03-16T01:02:52;98755.30;;;-0.79;72.15
37904;BME280;23738;50.422;18.758;2023-03-16T01:05:21;98752.37;;;-0.83;72.09
37904;BME280;23738;50.422;18.758;2023-03-16T01:07:51;98753.97;;;-0.88;72.38
37904;BME280;23738;50.422;18.758;2023-03-16T01:10:20;98757.54;;;-0.92;72.11
37904;BME280;23738;50.422;18.758;2023-03-16T01:12:49;98762.48;;;-0.93;72.09
37904;BME280;23738;50.422;18.758;2023-03-16T01:15:23;98759.07;;;-0.94;72.06
37904;BME280;23738;50.422;18.758;2023-03-16T01:17:52;98764.77;;;-0.91;72.29
37904;BME280;23738;50.422;18.758;2023-03-16T01:20:21;98764.55;;;-0.89;72.49
37904;BME280;23738;50.422;18.758;2023-03-16T01:22:51;98767.25;;;-0.90;72.47
37904;BME280;23738;50.422;18.758;2023-03-16T01:25:20;98769.52;;;-0.93;72.64
37904;BME280;23738;50.422;18.758;2023-03-16T01:27:51;98769.82;;;-0.96;72.82
37904;BME280;23738;50.422;18.758;2023-03-16T01:30:20;98772.70;;;-1.00;73.04
37904;BME280;23738;50.422;18.758;2023-03-16T01:32:50;98773.00;;;-1.03;72.86
37904;BME280;23738;50.422;18.758;2023-03-16T01:35:19;98773.67;;;-1.03;72.89
37904;BME280;23738;50.422;18.758;2023-03-16T01:37:49;98770.15;;;-1.03;73.30
37904;BME280;23738;50.422;18.758;2023-03-16T01:40:19;98769.80;;;-1.00;73.17
37904;BME280;23738;50.422;18.758;2023-03-16T01:42:58;98772.23;;;-0.98;73.20
37904;BME280;23738;50.422;18.758;2023-03-16T01:48:34;98773.25;;;-1.00;73.46
37904;BME280;23738;50.422;18.758;2023-03-16T01:51:08;98772.39;;;-1.02;73.44
37904;BME280;23738;50.422;18.758;2023-03-16T01:53:38;98767.73;;;-1.07;73.72
37904;BME280;23738;50.422;18.758;2023-03-16T01:56:10;98770.34;;;-1.09;73.91
37904;BME280;23738;50.422;18.758;2023-03-16T01:58:43;98773.14;;;-1.12;73.62
37904;BME280;23738;50.422;18.758;2023-03-16T02:01:14;98772.39;;;-1.13;73.58
37904;BME280;23738;50.422;18.758;2023-03-16T02:03:43;98773.30;;;-1.11;73.71
37904;BME280;23738;50.422;18.758;2023-03-16T02:06:17;98777.62;;;-1.09;73.92
37904;BME280;23738;50.422;18.758;2023-03-16T02:08:48;98778.77;;;-1.09;73.93
37904;BME280;23738;50.422;18.758;2023-03-16T02:11:18;98782.11;;;-1.09;73.85
37904;BME280;23738;50.422;18.758;2023-03-16T02:13:50;98784.90;;;-1.10;74.01
37904;BME280;23738;50.422;18.758;2023-03-16T02:16:20;98788.66;;;-1.11;74.13
37904;BME280;23738;50.422;18.758;2023-03-16T02:18:50;98788.53;;;-1.14;74.24
37904;BME280;23738;50.422;18.758;2023-03-16T02:21:25;98792.20;;;-1.17;74.37
37904;BME280;23738;50.422;18.758;2023-03-16T02:24:01;98795.36;;;-1.20;74.09
37904;BME280;23738;50.422;18.758;2023-03-16T02:26:39;98798.27;;;-1.21;74.21
37904;BME280;23738;50.422;18.758;2023-03-16T02:29:22;98806.08;;;-1.22;74.07
37904;BME280;23738;50.422;18.758;2023-03-16T02:31:57;98813.98;;;-1.19;74.07
37904;BME280;23738;50.422;18.758;2023-03-16T02:34:29;98811.67;;;-1.16;74.10
37904;BME280;23738;50.422;18.758;2023-03-16T02:36:59;98816.55;;;-1.12;74.19
37904;BME280;23738;50.422;18.758;2023-03-16T02:39:29;98817.92;;;-1.10;74.39
37904;BME280;23738;50.422;18.758;2023-03-16T02:41:58;98818.33;;;-1.10;74.28
37904;BME280;23738;50.422;18.758;2023-03-16T02:44:31;98822.65;;;-1.08;74.30
37904;BME280;23738;50.422;18.758;2023-03-16T02:47:04;98826.23;;;-1.10;74.10
37904;BME280;23738;50.422;18.758;2023-03-16T02:49:37;98826.89;;;-1.14;74.19
37904;BME280;23738;50.422;18.758;2023-03-16T02:52:09;98835.33;;;-1.18;74.30
37904;BME280;23738;50.422;18.758;2023-03-16T02:54:39;98838.73;;;-1.22;74.22
37904;BME280;23738;50.422;18.758;2023-03-16T02:57:08;98841.77;;;-1.25;74.07
37904;BME280;23738;50.422;18.758;2023-03-16T02:59:38;98843.71;;;-1.26;74.09
37904;BME280;23738;50.422;18.758;2023-03-16T03:02:09;98847.70;;;-1.26;74.13
37904;BME280;23738;50.422;18.758;2023-03-16T03:04:38;98849.40;;;-1.23;74.26
37904;BME280;23738;50.422;18.758;2023-03-16T03:07:07;98852.45;;;-1.23;74.16
37904;BME280;23738;50.422;18.758;2023-03-16T03:09:37;98853.61;;;-1.24;74.24
37904;BME280;23738;50.422;18.758;2023-03-16T03:12:07;98859.65;;;-1.26;74.33
37904;BME280;23738;50.422;18.758;2023-03-16T03:14:37;98859.34;;;-1.31;74.31
37904;BME280;23738;50.422;18.758;2023-03-16T03:17:07;98864.04;;;-1.38;74.20
37904;BME280;23738;50.422;18.758;2023-03-16T03:19:37;98864.98;;;-1.44;74.04
37904;BME280;23738;50.422;18.758;2023-03-16T03:22:07;98867.66;;;-1.50;74.23
37904;BME280;23738;50.422;18.758;2023-03-16T03:24:36;98870.06;;;-1.54;74.22
37904;BME280;23738;50.422;18.758;2023-03-16T03:27:05;98879.46;;;-1.55;74.06
37904;BME280;23738;50.422;18.758;2023-03-16T03:29:35;98883.11;;;-1.55;74.03
37904;BME280;23738;50.422;18.758;2023-03-16T03:32:05;98882.78;;;-1.53;74.21
37904;BME280;23738;50.422;18.758;2023-03-16T03:34:35;98885.75;;;-1.49;74.36
37904;BME280;23738;50.422;18.758;2023-03-16T03:37:04;98890.67;;;-1.48;74.36
37904;BME280;23738;50.422;18.758;2023-03-16T03:39:34;98885.69;;;-1.48;74.40
37904;BME280;23738;50.422;18.758;2023-03-16T03:42:03;98890.11;;;-1.47;74.28
37904;BME280;23738;50.422;18.758;2023-03-16T03:44:34;98890.25;;;-1.51;74.33
37904;BME280;23738;50.422;18.758;2023-03-16T03:47:04;98896.38;;;-1.57;74.20
37904;BME280;23738;50.422;18.758;2023-03-16T03:49:33;98900.52;;;-1.62;74.07
37904;BME280;23738;50.422;18.758;2023-03-16T03:52:03;98896.30;;;-1.68;74.07
37904;BME280;23738;50.422;18.758;2023-03-16T03:54:32;98899.06;;;-1.75;74.17
37904;BME280;23738;50.422;18.758;2023-03-16T03:57:02;98901.96;;;-1.81;74.16
37904;BME280;23738;50.422;18.758;2023-03-16T03:59:31;98903.67;;;-1.83;73.96
37904;BME280;23738;50.422;18.758;2023-03-16T04:02:01;98904.67;;;-1.83;73.78
37904;BME280;23738;50.422;18.758;2023-03-16T04:04:31;98903.23;;;-1.84;74.03
37904;BME280;23738;50.422;18.758;2023-03-16T04:07:00;98901.85;;;-1.84;73.99
37904;BME280;23738;50.422;18.758;2023-03-16T04:09:30;98898.35;;;-1.86;74.03
37904;BME280;23738;50.422;18.758;2023-03-16T04:12:01;98904.52;;;-1.88;74.13
37904;BME280;23738;50.422;18.758;2023-03-16T04:14:30;98906.52;;;-1.94;73.98
37904;BME280;23738;50.422;18.758;2023-03-16T04:17:00;98905.34;;;-1.99;73.97
37904;BME280;23738;50.422;18.758;2023-03-16T04:19:31;98910.16;;;-2.06;73.98
37904;BME280;23738;50.422;18.758;2023-03-16T04:22:00;98908.95;;;-2.13;73.98
37904;BME280;23738;50.422;18.758;2023-03-16T04:24:30;98911.00;;;-2.19;73.92
37904;BME280;23738;50.422;18.758;2023-03-16T04:27:01;98910.42;;;-2.28;73.76
37904;BME280;23738;50.422;18.758;2023-03-16T04:29:30;98911.75;;;-2.37;73.71
37904;BME280;23738;50.422;18.758;2023-03-16T04:32:00;98910.17;;;-2.39;73.74
37904;BME280;23738;50.422;18.758;2023-03-16T04:34:29;98913.10;;;-2.37;73.91
37904;BME280;23738;50.422;18.758;2023-03-16T04:36:58;98909.29;;;-2.34;73.98
37904;BME280;23738;50.422;18.758;2023-03-16T04:39:29;98907.79;;;-2.32;73.89
37904;BME280;23738;50.422;18.758;2023-03-16T04:41:58;98910.02;;;-2.35;73.93
37904;BME280;23738;50.422;18.758;2023-03-16T04:44:29;98912.95;;;-2.40;73.84
37904;BME280;23738;50.422;18.758;2023-03-16T04:46:58;98913.00;;;-2.43;73.88
37904;BME280;23738;50.422;18.758;2023-03-16T04:49:27;98919.36;;;-2.45;73.98
37904;BME280;23738;50.422;18.758;2023-03-16T04:51:56;98928.06;;;-2.48;74.12
37904;BME280;23738;50.422;18.758;2023-03-16T04:54:26;98931.11;;;-2.53;73.93
37904;BME280;23738;50.422;18.758;2023-03-16T04:56:55;98934.27;;;-2.55;74.09
37904;BME280;23738;50.422;18.758;2023-03-16T04:59:24;98937.20;;;-2.58;74.02
37904;BME280;23738;50.422;18.758;2023-03-16T05:01:54;98945.80;;;-2.58;74.02
37904;BME280;23738;50.422;18.758;2023-03-16T05:04:23;98946.08;;;-2.54;74.07
37904;BME280;23738;50.422;18.758;2023-03-16T05:06:52;98946.50;;;-2.50;73.99
37904;BME280;23738;50.422;18.758;2023-03-16T05:09:22;98950.92;;;-2.52;73.81
37904;BME280;23738;50.422;18.758;2023-03-16T05:11:52;98952.16;;;-2.55;74.02
37904;BME280;23738;50.422;18.758;2023-03-16T05:14:21;98953.24;;;-2.56;74.08
37904;BME280;23738;50.422;18.758;2023-03-16T05:16:51;98955.45;;;-2.53;74.29
37904;BME280;23738;50.422;18.758;2023-03-16T05:19:20;98952.55;;;-2.53;74.26
37904;BME280;23738;50.422;18.758;2023-03-16T05:21:49;98960.19;;;-2.56;74.17
37904;BME280;23738;50.422;18.758;2023-03-16T05:24:19;98962.17;;;-2.62;74.12
37904;BME280;23738;50.422;18.758;2023-03-16T05:26:48;98966.11;;;-2.67;74.14
37904;BME280;23738;50.422;18.758;2023-03-16T05:29:18;98966.63;;;-2.70;74.18
37904;BME280;23738;50.422;18.758;2023-03-16T05:31:47;98975.39;;;-2.69;74.09
37904;BME280;23738;50.422;18.758;2023-03-16T05:34:17;98979.83;;;-2.65;74.15
37904;BME280;23738;50.422;18.758;2023-03-16T05:36:46;98981.96;;;-2.64;74.06
37904;BME280;23738;50.422;18.758;2023-03-16T05:39:16;98982.48;;;-2.59;74.21
37904;BME280;23738;50.422;18.758;2023-03-16T05:41:45;98979.92;;;-2.50;74.54
37904;BME280;23738;50.422;18.758;2023-03-16T05:44:15;98981.88;;;-2.41;74.59
37904;BME280;23738;50.422;18.758;2023-03-16T05:46:45;98976.60;;;-2.37;74.53
37904;BME280;23738;50.422;18.758;2023-03-16T05:49:14;98983.81;;;-2.27;74.76
37904;BME280;23738;50.422;18.758;2023-03-16T05:51:44;98981.98;;;-2.23;75.01
37904;BME280;23738;50.422;18.758;2023-03-16T05:54:13;98985.84;;;-2.11;74.88
37904;BME280;23738;50.422;18.758;2023-03-16T05:56:42;98990.49;;;-2.04;74.89
37904;BME280;23738;50.422;18.758;2023-03-16T05:59:11;98994.38;;;-1.96;74.86
37904;BME280;23738;50.422;18.758;2023-03-16T06:01:41;98999.42;;;-1.79;75.12
37904;BME280;23738;50.422;18.758;2023-03-16T06:04:10;99001.14;;;-1.58;75.30
37904;BME280;23738;50.422;18.758;2023-03-16T06:06:39;99001.70;;;-1.40;75.74
37904;BME280;23738;50.422;18.758;2023-03-16T06:09:09;99001.42;;;-1.25;75.71
37904;BME280;23738;50.422;18.758;2023-03-16T06:11:38;98998.48;;;-1.18;75.63
37904;BME280;23738;50.422;18.758;2023-03-16T06:14:07;99005.40;;;-1.13;75.73
37904;BME280;23738;50.422;18.758;2023-03-16T06:16:36;99006.66;;;-1.14;75.71
37904;BME280;23738;50.422;18.758;2023-03-16T06:19:06;99008.58;;;-1.14;75.66
37904;BME280;23738;50.422;18.758;2023-03-16T06:21:35;99011.81;;;-1.07;75.81
37904;BME280;23738;50.422;18.758;2023-03-16T06:24:05;99015.13;;;-0.87;75.97
37904;BME280;23738;50.422;18.758;2023-03-16T06:26:36;99014.31;;;-0.60;76.20
37904;BME280;23738;50.422;18.758;2023-03-16T06:29:05;99014.71;;;-0.34;76.41
37904;BME280;23738;50.422;18.758;2023-03-16T06:31:35;99014.30;;;-0.11;76.60
37904;BME280;23738;50.422;18.758;2023-03-16T06:34:04;99015.89;;;0.15;76.82
37904;BME280;23738;50.422;18.758;2023-03-16T06:36:34;99019.02;;;0.40;77.08
37904;BME280;23738;50.422;18.758;2023-03-16T06:39:05;99023.16;;;0.49;76.67
37904;BME280;23738;50.422;18.758;2023-03-16T06:41:35;99024.81;;;0.37;76.28
37904;BME280;23738;50.422;18.758;2023-03-16T06:44:05;99032.43;;;0.28;76.09
37904;BME280;23738;50.422;18.758;2023-03-16T06:46:34;99027.02;;;0.21;76.12
37904;BME280;23738;50.422;18.758;2023-03-16T06:49:04;99035.09;;;0.17;76.18
37904;BME280;23738;50.422;18.758;2023-03-16T06:51:33;99037.80;;;0.18;76.38
37904;BME280;23738;50.422;18.758;2023-03-16T06:54:02;99040.60;;;0.22;76.36
37904;BME280;23738;50.422;18.758;2023-03-16T06:59:00;99042.59;;;0.38;76.43
37904;BME280;23738;50.422;18.758;2023-03-16T07:01:30;99044.90;;;0.41;76.56
37904;BME280;23738;50.422;18.758;2023-03-16T07:03:59;99045.99;;;0.45;76.56
37904;BME280;23738;50.422;18.758;2023-03-16T07:06:28;99048.42;;;0.53;76.69
37904;BME280;23738;50.422;18.758;2023-03-16T07:08:58;99050.18;;;0.68;76.74
37904;BME280;23738;50.422;18.758;2023-03-16T07:11:31;99051.77;;;0.85;76.86
37904;BME280;23738;50.422;18.758;2023-03-16T07:14:00;99046.48;;;1.02;77.03
37904;BME280;23738;50.422;18.758;2023-03-16T07:16:29;99052.02;;;1.22;76.73
37904;BME280;23738;50.422;18.758;2023-03-16T07:18:59;99054.11;;;1.27;76.63
37904;BME280;23738;50.422;18.758;2023-03-16T07:21:28;99056.34;;;1.38;76.95
37904;BME280;23738;50.422;18.758;2023-03-16T07:23:59;99052.23;;;1.54;77.22
37904;BME280;23738;50.422;18.758;2023-03-16T07:26:28;99052.70;;;1.67;77.17
37904;BME280;23738;50.422;18.758;2023-03-16T07:28:57;99050.09;;;1.75;77.23
37904;BME280;23738;50.422;18.758;2023-03-16T07:31:27;99055.40;;;1.93;77.29
37904;BME280;23738;50.422;18.758;2023-03-16T07:33:56;99059.30;;;2.13;77.06
37904;BME280;23738;50.422;18.758;2023-03-16T07:36:25;99058.40;;;2.13;76.71
37904;BME280;23738;50.422;18.758;2023-03-16T07:38:55;99062.22;;;2.05;76.86
37904;BME280;23738;50.422;18.758;2023-03-16T07:41:24;99069.45;;;2.08;76.44
37904;BME280;23738;50.422;18.758;2023-03-16T07:43:54;99070.73;;;2.07;76.93
37904;BME280;23738;50.422;18.758;2023-03-16T07:46:25;99066.81;;;2.18;76.86
37904;BME280;23738;50.422;18.758;2023-03-16T07:48:54;99063.92;;;2.43;77.05
37904;BME280;23738;50.422;18.758;2023-03-16T07:51:24;99062.46;;;2.67;77.39
37904;BME280;23738;50.422;18.758;2023-03-16T07:53:53;99063.43;;;2.80;76.97
37904;BME280;23738;50.422;18.758;2023-03-16T07:56:22;99063.41;;;2.82;76.67
37904;BME280;23738;50.422;18.758;2023-03-16T07:58:52;99064.45;;;2.89;76.88
37904;BME280;23738;50.422;18.758;2023-03-16T08:01:21;99065.73;;;3.02;77.02
37904;BME280;23738;50.422;18.758;2023-03-16T08:03:50;99066.61;;;3.21;77.06
37904;BME280;23738;50.422;18.758;2023-03-16T08:06:20;99072.56;;;3.43;76.87
37904;BME280;23738;50.422;18.758;2023-03-16T08:08:52;99071.86;;;3.49;76.62
37904;BME280;23738;50.422;18.758;2023-03-16T08:11:22;99075.11;;;3.52;76.60
37904;BME280;23738;50.422;18.758;2023-03-16T08:13:51;99081.10;;;3.64;76.50
37904;BME280;23738;50.422;18.758;2023-03-16T08:16:26;99077.79;;;3.80;76.95
37904;BME280;23738;50.422;18.758;2023-03-16T08:18:57;99079.81;;;4.11;77.03
37904;BME280;23738;50.422;18.758;2023-03-16T08:21:28;99081.30;;;4.32;76.22
37904;BME280;23738;50.422;18.758;2023-03-16T08:23:57;99080.41;;;4.43;76.56
37904;BME280;23738;50.422;18.758;2023-03-16T08:26:27;99084.30;;;4.62;76.39
37904;BME280;23738;50.422;18.758;2023-03-16T08:28:56;99081.87;;;4.76;75.79
37904;BME280;23738;50.422;18.758;2023-03-16T08:31:29;99079.13;;;4.74;76.30
37904;BME280;23738;50.422;18.758;2023-03-16T08:34:02;99079.89;;;4.96;76.45
37904;BME280;23738;50.422;18.758;2023-03-16T08:36:31;99084.78;;;5.22;76.58
37904;BME280;23738;50.422;18.758;2023-03-16T08:39:01;99084.86;;;5.41;76.68
37904;BME280;23738;50.422;18.758;2023-03-16T08:41:32;99085.84;;;5.50;76.36
37904;BME280;23738;50.422;18.758;2023-03-16T08:44:02;99085.89;;;5.57;75.77
37904;BME280;23738;50.422;18.758;2023-03-16T08:46:32;99091.14;;;5.50;75.41
37904;BME280;23738;50.422;18.758;2023-03-16T08:49:01;99091.66;;;5.34;75.40
37904;BME280;23738;50.422;18.758;2023-03-16T08:51:30;99096.94;;;5.14;75.17
37904;BME280;23738;50.422;18.758;2023-03-16T08:53:59;99101.84;;;5.07;75.13
37904;BME280;23738;50.422;18.758;2023-03-16T08:56:28;99099.59;;;5.14;75.37
37904;BME280;23738;50.422;18.758;2023-03-16T08:58:59;99102.93;;;5.40;74.99
37904;BME280;23738;50.422;18.758;2023-03-16T09:01:28;99107.01;;;5.57;75.46
37904;BME280;23738;50.422;18.758;2023-03-16T09:03:58;99107.52;;;5.87;75.57
37904;BME280;23738;50.422;18.758;2023-03-16T09:06:30;99117.48;;;5.78;74.45
37904;BME280;23738;50.422;18.758;2023-03-16T09:08:59;99111.02;;;5.72;74.83
37904;BME280;23738;50.422;18.758;2023-03-16T09:11:28;99110.00;;;6.00;75.09
37904;BME280;23738;50.422;18.758;2023-03-16T09:14:00;99116.42;;;6.00;73.74
37904;BME280;23738;50.422;18.758;2023-03-16T09:16:29;99123.96;;;5.83;73.80
37904;BME280;23738;50.422;18.758;2023-03-16T09:18:59;99117.81;;;5.76;73.88
37904;BME280;23738;50.422;18.758;2023-03-16T09:21:28;99119.10;;;5.72;74.02
37904;BME280;23738;50.422;18.758;2023-03-16T09:23:58;99120.95;;;5.89;74.10
37904;BME280;23738;50.422;18.758;2023-03-16T09:26:28;99125.26;;;5.92;74.10
37904;BME280;23738;50.422;18.758;2023-03-16T09:28:57;99124.25;;;5.94;74.15
37904;BME280;23738;50.422;18.758;2023-03-16T09:31:26;99119.58;;;6.21;73.87
37904;BME280;23738;50.422;18.758;2023-03-16T09:33:55;99118.06;;;6.35;73.53
37904;BME280;23738;50.422;18.758;2023-03-16T09:36:25;99123.55;;;6.25;73.28
37904;BME280;23738;50.422;18.758;2023-03-16T09:38:55;99123.34;;;6.13;73.25
37904;BME280;23738;50.422;18.758;2023-03-16T09:41:37;99122.66;;;6.25;72.86
37904;BME280;23738;50.422;18.758;2023-03-16T09:44:22;99120.54;;;6.50;72.32
37904;BME280;23738;50.422;18.758;2023-03-16T09:46:58;99118.61;;;6.75;70.84
37904;BME280;23738;50.422;18.758;2023-03-16T09:49:36;99117.42;;;6.75;70.37
37904;BME280;23738;50.422;18.758;2023-03-16T09:52:19;99116.77;;;6.97;72.02
37904;BME280;23738;50.422;18.758;2023-03-16T09:54:58;99118.73;;;7.28;71.18
37904;BME280;23738;50.422;18.758;2023-03-16T09:57:30;99121.98;;;7.50;70.56
37904;BME280;23738;50.422;18.758;2023-03-16T14:16:21;99090.67;;;10.39;52.49
37904;BME280;23738;50.422;18.758;2023-03-16T14:18:53;99096.81;;;10.04;52.18
37904;BME280;23738;50.422;18.758;2023-03-16T14:21:26;99099.73;;;9.87;54.03
37904;BME280;23738;50.422;18.758;2023-03-16T14:23:58;99092.31;;;9.91;53.47
37904;BME280;23738;50.422;18.758;2023-03-16T14:26:39;99086.84;;;10.07;53.75
37904;BME280;23738;50.422;18.758;2023-03-16T14:29:15;99088.06;;;10.19;52.48
37904;BME280;23738;50.422;18.758;2023-03-16T14:31:47;99090.89;;;10.14;51.99
37904;BME280;23738;50.422;18.758;2023-03-16T14:34:29;99085.20;;;10.10;52.58
37904;BME280;23738;50.422;18.758;2023-03-16T14:37:11;99084.24;;;10.09;52.14
37904;BME280;23738;50.422;18.758;2023-03-16T14:39:41;99086.02;;;10.06;51.88
37904;BME280;23738;50.422;18.758;2023-03-16T14:42:18;99085.85;;;10.05;50.41
37904;BME280;23738;50.422;18.758;2023-03-16T14:44:49;99087.42;;;10.11;52.38
37904;BME280;23738;50.422;18.758;2023-03-16T14:47:22;99088.41;;;10.15;51.78
37904;BME280;23738;50.422;18.758;2023-03-16T14:49:53;99088.60;;;10.05;49.87
37904;BME280;23738;50.422;18.758;2023-03-16T14:52:29;99093.05;;;9.85;50.34
37904;BME280;23738;50.422;18.758;2023-03-16T14:55:00;99091.66;;;9.66;51.56
37904;BME280;23738;50.422;18.758;2023-03-16T14:57:30;99095.30;;;9.47;51.93
37904;BME280;23738;50.422;18.758;2023-03-16T14:59:59;99097.63;;;9.38;52.24
37904;BME280;23738;50.422;18.758;2023-03-16T15:02:30;99097.27;;;9.26;52.43
37904;BME280;23738;50.422;18.758;2023-03-16T15:05:02;99095.98;;;9.24;52.66
37904;BME280;23738;50.422;18.758;2023-03-16T15:07:34;99095.36;;;9.18;52.57
37904;BME280;23738;50.422;18.758;2023-03-16T15:10:15;99094.88;;;9.10;52.54
37904;BME280;23738;50.422;18.758;2023-03-16T15:12:49;99099.15;;;8.97;52.90
37904;BME280;23738;50.422;18.758;2023-03-16T15:15:22;99100.17;;;8.98;53.15
37904;BME280;23738;50.422;18.758;2023-03-16T15:17:55;99100.73;;;8.95;52.91
37904;BME280;23738;50.422;18.758;2023-03-16T15:20:28;99100.48;;;8.86;53.00
37904;BME280;23738;50.422;18.758;2023-03-16T15:23:00;99103.61;;;8.80;53.08
37904;BME280;23738;50.422;18.758;2023-03-16T15:25:34;99102.66;;;8.74;53.13
37904;BME280;23738;50.422;18.758;2023-03-16T15:28:11;99103.36;;;8.71;53.10
37904;BME280;23738;50.422;18.758;2023-03-16T15:30:40;99104.91;;;8.67;53.10
37904;BME280;23738;50.422;18.758;2023-03-16T15:33:11;99100.34;;;8.66;53.18
37904;BME280;23738;50.422;18.758;2023-03-16T15:35:41;99102.27;;;8.64;53.08
37904;BME280;23738;50.422;18.758;2023-03-16T15:38:15;99101.70;;;8.59;53.03
37904;BME280;23738;50.422;18.758;2023-03-16T15:40:46;99101.84;;;8.56;53.13
37904;BME280;23738;50.422;18.758;2023-03-16T15:43:19;99106.23;;;8.53;53.02
37904;BME280;23738;50.422;18.758;2023-03-16T15:45:50;99106.81;;;8.49;53.06
37904;BME280;23738;50.422;18.758;2023-03-16T15:48:21;99106.27;;;8.46;53.21
37904;BME280;23738;50.422;18.758;2023-03-16T15:50:53;99106.84;;;8.44;53.21
37904;BME280;23738;50.422;18.758;2023-03-16T15:53:26;99101.63;;;8.38;53.41
37904;BME280;23738;50.422;18.758;2023-03-16T15:55:58;99105.33;;;8.37;53.45
37904;BME280;23738;50.422;18.758;2023-03-16T15:58:31;99110.86;;;8.30;53.12
37904;BME280;23738;50.422;18.758;2023-03-16T16:01:04;99113.89;;;8.19;52.98
37904;BME280;23738;50.422;18.758;2023-03-16T16:03:34;99116.34;;;8.04;52.92
37904;BME280;23738;50.422;18.758;2023-03-16T16:06:07;99118.77;;;7.97;53.10
37904;BME280;23738;50.422;18.758;2023-03-16T16:08:38;99119.86;;;7.88;53.13
37904;BME280;23738;50.422;18.758;2023-03-16T16:11:13;99116.42;;;7.81;53.24
37904;BME280;23738;50.422;18.758;2023-03-16T16:13:43;99116.56;;;7.74;53.31
37904;BME280;23738;50.422;18.758;2023-03-16T16:16:15;99123.48;;;7.65;53.16
37904;BME280;23738;50.422;18.758;2023-03-16T16:18:45;99123.20;;;7.55;53.29
37904;BME280;23738;50.422;18.758;2023-03-16T16:21:17;99122.88;;;7.46;53.37
37904;BME280;23738;50.422;18.758;2023-03-16T16:23:47;99127.77;;;7.40;53.34
37904;BME280;23738;50.422;18.758;2023-03-16T16:26:24;99127.47;;;7.30;53.15
37904;BME280;23738;50.422;18.758;2023-03-16T16:28:55;99131.31;;;7.22;53.37
37904;BME280;23738;50.422;18.758;2023-03-16T16:31:28;99132.04;;;7.12;53.43
37904;BME280;23738;50.422;18.758;2023-03-16T16:33:58;99132.80;;;7.05;53.49
37904;BME280;23738;50.422;18.758;2023-03-16T16:36:29;99134.34;;;6.97;53.88
37904;BME280;23738;50.422;18.758;2023-03-16T16:38:59;99139.55;;;6.89;54.04
37904;BME280;23738;50.422;18.758;2023-03-16T16:41:31;99142.27;;;6.80;54.16
37904;BME280;23738;50.422;18.758;2023-03-16T16:44:01;99141.62;;;6.68;54.09
37904;BME280;23738;50.422;18.758;2023-03-16T16:46:37;99145.16;;;6.56;54.11
37904;BME280;23738;50.422;18.758;2023-03-16T16:49:14;99145.44;;;6.40;54.06
37904;BME280;23738;50.422;18.758;2023-03-16T16:51:44;99146.52;;;6.27;54.17
37904;BME280;23738;50.422;18.758;2023-03-16T16:54:19;99145.61;;;6.14;54.08
37904;BME280;23738;50.422;18.758;2023-03-16T16:56:51;99141.66;;;5.98;54.20
37904;BME280;23738;50.422;18.758;2023-03-16T16:59:24;99148.86;;;5.89;54.27
37904;BME280;23738;50.422;18.758;2023-03-16T17:01:54;99149.22;;;5.75;54.18
37904;BME280;23738;50.422;18.758;2023-03-16T17:04:25;99149.66;;;5.60;54.31
37904;BME280;23738;50.422;18.758;2023-03-16T17:06:57;99144.26;;;5.48;54.25
37904;BME280;23738;50.422;18.758;2023-03-16T17:09:30;99149.84;;;5.36;54.69
37904;BME280;23738;50.422;18.758;2023-03-16T17:12:00;99154.80;;;5.24;54.61
37904;BME280;23738;50.422;18.758;2023-03-16T17:14:30;99159.05;;;5.11;54.80
37904;BME280;23738;50.422;18.758;2023-03-16T17:17:01;99160.46;;;4.99;54.61
37904;BME280;23738;50.422;18.758;2023-03-16T17:19:35;99162.19;;;4.86;54.69
37904;BME280;23738;50.422;18.758;2023-03-16T17:22:20;99166.25;;;4.77;54.83
37904;BME280;23738;50.422;18.758;2023-03-16T17:24:51;99169.30;;;4.65;54.78
37904;BME280;23738;50.422;18.758;2023-03-16T17:27:24;99167.04;;;4.54;54.88
37904;BME280;23738;50.422;18.758;2023-03-16T17:29:56;99170.27;;;4.42;54.79
37904;BME280;23738;50.422;18.758;2023-03-16T17:32:25;99170.70;;;4.30;54.89
37904;BME280;23738;50.422;18.758;2023-03-16T17:34:57;99163.65;;;4.18;55.11